Latest Weather Observations for Bunbury

IDW60801

Issued at 7:35 pm WST Friday 22 August 2014 (issued every 30 minutes, with the page automatically refreshed every 10 minutes)

About weather observations | Map of weather stations | Latest weather observations for WA | Other Formats
Station Details ID: 009965 Name: BUNBURY Lat: -33.36 Lon: 115.64 Height: 5.2 m
Data from the previous 72 hours. | See also: Recent months at Bunbury
Date/Time
WST
Temp
°C
App
Temp
°C
Dew
Point
Rel
Hum
%
Delta-T
°C
Wind Press
QNH
hPa
Press
MSL
hPa
Rain
since 9 am
mm
Dir
 
Spd
km/h
Gust
km/h
Spd
kts
Gust
kts
22/07:30pm 9.3 8.8 7.9 91 0.7 SSE 0 0 0 0 1024.0 1024.0 0.0
22/07:00pm 10.0 9.5 7.9 87 1.0 SSW 0 0 0 0 1023.6 1023.6 0.0
22/06:30pm 11.0 10.2 8.2 83 1.4 NW 2 2 1 1 1023.3 1023.3 0.0
22/06:00pm 12.9 11.6 7.8 71 2.5 NW 4 4 2 2 1022.9 1022.9 0.0
22/05:30pm 15.1 13.5 7.9 62 3.6 WNW 6 7 3 4 1022.7 1022.7 0.0
22/05:00pm 16.3 14.0 7.5 56 4.4 W 9 11 5 6 1022.6 1022.6 0.0
22/04:30pm 16.7 14.6 8.1 57 4.4 W 9 15 5 8 1022.3 1022.3 0.0
22/04:00pm 16.1 13.2 8.3 60 3.9 WNW 13 17 7 9 1022.3 1022.3 0.0
22/03:30pm 17.3 14.8 8.4 56 4.6 W 11 17 6 9 1022.2 1022.2 0.0
22/03:00pm 17.7 15.2 8.3 54 4.8 W 11 19 6 10 1022.1 1022.1 0.0
22/02:30pm 17.7 14.8 8.3 54 4.8 WNW 13 19 7 10 1021.9 1021.9 0.0
22/02:00pm 17.9 15.6 9.0 56 4.6 WNW 11 17 6 9 1021.6 1021.6 0.0
22/01:30pm 17.8 15.4 7.2 50 5.3 W 9 17 5 9 1021.5 1021.5 0.0
22/01:00pm 17.8 15.5 8.9 56 4.6 W 11 19 6 10 1021.6 1021.6 0.0
22/12:30pm 17.7 15.4 9.1 57 4.5 WSW 11 17 6 9 1021.7 1021.7 0.0
22/12:00pm 17.7 15.0 9.1 57 4.5 WSW 13 19 7 10 1021.9 1021.9 0.0
22/11:30am 16.8 14.6 8.0 56 4.5 SSW 9 17 5 9 1022.1 1022.1 0.0
22/11:00am 17.2 14.0 8.6 57 4.4 SW 15 22 8 12 1022.3 1022.3 0.0
22/10:30am 17.1 15.4 8.3 56 4.5 SW 7 15 4 8 1022.3 1022.3 0.0
22/10:00am 16.2 13.9 7.4 56 4.4 SW 9 13 5 7 1022.1 1022.1 0.0
22/09:30am 15.6 13.1 8.1 61 3.8 WSW 11 19 6 10 1021.8 1021.8 0.0
22/09:00am 14.9 11.3 8.2 64 3.3 WSW 17 28 9 15 1021.6 1021.6 4.4
22/08:30am 14.7 12.7 8.6 67 3.1 SW 9 13 5 7 1021.3 1021.3 4.4
22/08:00am 13.4 12.1 7.6 68 2.8 S 4 6 2 3 1020.7 1020.7 4.4
22/07:30am 11.6 9.8 7.3 75 2.1 S 6 9 3 5 1020.2 1020.2 4.4
22/07:00am 13.1 10.2 9.5 79 1.8 WSW 15 24 8 13 1019.9 1019.9 4.4
22/06:30am 11.4 9.4 7.1 75 2.0 SSW 7 11 4 6 1019.1 1019.1 4.4
22/06:00am 12.7 8.9 7.6 71 2.5 SSW 17 26 9 14 1018.8 1018.8 4.4
22/05:30am 12.9 9.9 6.0 63 3.3 SSW 11 17 6 9 1018.3 1018.3 4.4
22/05:00am 14.4 10.2 5.5 55 4.2 SW 17 24 9 13 1017.6 1017.5 4.4
22/04:30am 14.6 11.3 8.1 65 3.2 SW 15 26 8 14 1017.2 1017.1 4.4
22/04:00am 14.4 10.6 7.5 63 3.4 WSW 17 26 9 14 1017.0 1016.9 4.4
22/03:30am 14.7 10.0 7.7 63 3.5 WSW 22 33 12 18 1016.7 1016.6 4.4
22/03:00am 14.5 10.0 7.1 61 3.6 WSW 20 41 11 22 1016.6 1016.5 4.4
22/02:30am 14.5 11.0 13.5 94 0.6 WSW 24 37 13 20 1016.3 1016.2 4.4
22/02:00am 14.2 10.7 13.4 95 0.4 WSW 24 43 13 23 1015.8 1015.7 4.4
22/01:30am 12.5 7.4 10.6 88 1.0 W 28 57 15 31 1016.1 1016.0 3.8
22/01:00am 15.1 10.6 9.9 71 2.7 W 24 43 13 23 1015.2 1015.1 3.4
22/12:30am 15.4 9.9 9.3 67 3.1 W 28 46 15 25 1014.9 1014.8 3.4
22/12:00am 15.0 10.5 10.0 72 2.6 W 24 41 13 22 1014.7 1014.6 3.4
 
Date/Time
WST
Temp
°C
App
Temp
°C
Dew
Point
Rel
Hum
%
Delta-T
°C
Wind Press
QNH
hPa
Press
MSL
hPa
Rain
since 9 am
mm
Dir
 
Spd
km/h
Gust
km/h
Spd
kts
Gust
kts
21/11:43pm 15.9 10.2 8.2 60 3.9 W 28 48 15 26 1014.4 1014.3 3.4
21/11:30pm 15.8 10.4 7.8 59 4.0 W 26 41 14 22 1014.5 1014.4 3.4
21/11:10pm 16.0 10.5 9.0 63 3.6 W 28 52 15 28 1014.3 1014.2 3.4
21/11:00pm 16.1 11.0 7.8 58 4.2 WNW 24 37 13 20 1014.3 1014.2 3.4
21/10:30pm 15.8 11.8 9.0 64 3.5 W 20 33 11 18 1014.3 1014.2 3.4
21/10:00pm 16.2 11.9 9.2 63 3.6 WNW 22 33 12 18 1014.1 1014.0 3.4
21/09:30pm 15.7 11.8 9.6 67 3.2 WNW 20 32 11 17 1014.2 1014.1 3.4
21/09:00pm 16.1 11.4 9.1 63 3.6 W 24 39 13 21 1014.0 1013.9 3.4
21/08:30pm 15.8 12.8 10.8 72 2.7 W 17 26 9 14 1013.5 1013.5 3.4
21/08:00pm 16.0 12.2 9.9 67 3.2 WNW 20 30 11 16 1013.2 1013.2 3.4
21/07:30pm 15.8 12.8 10.6 71 2.8 WNW 17 30 9 16 1013.0 1013.0 3.4
21/07:00pm 15.7 12.3 10.5 71 2.7 W 19 30 10 16 1012.9 1012.9 3.4
21/06:30pm 15.9 12.5 9.1 64 3.5 WNW 17 24 9 13 1012.4 1012.4 3.4
21/06:00pm 15.2 13.3 10.4 73 2.5 W 11 15 6 8 1012.0 1012.0 3.4
21/05:30pm 16.2 14.0 10.7 70 2.9 W 13 20 7 11 1011.8 1011.8 3.4
21/05:00pm 16.4 14.1 10.5 68 3.1 WSW 13 19 7 10 1011.5 1011.5 3.4
21/04:30pm 17.6 14.8 11.2 66 3.5 W 17 26 9 14 1011.1 1011.1 3.4
21/04:00pm 18.1 15.7 11.4 65 3.7 WSW 15 24 8 13 1011.0 1011.0 3.4
21/03:30pm 18.6 14.5 10.2 58 4.5 W 22 35 12 19 1010.8 1010.8 3.4
21/03:00pm 18.7 16.5 12.2 66 3.6 W 15 24 8 13 1010.5 1010.5 3.4
21/02:30pm 18.7 16.3 12.7 68 3.4 W 17 26 9 14 1010.4 1010.4 3.4
21/02:00pm 18.0 16.8 17.0 94 0.6 W 19 26 10 14 1010.4 1010.4 3.4
21/01:30pm 17.8 17.0 17.0 95 0.5 W 17 22 9 12 1010.3 1010.3 3.4
21/01:00pm 17.4 17.2 16.8 96 0.4 W 13 22 7 12 1010.2 1010.2 3.4
21/12:30pm 16.3 16.5 15.7 96 0.4 WSW 9 13 5 7 1010.4 1010.4 3.4
21/12:00pm 14.2 10.0 13.4 95 0.4 WSW 28 41 15 22 1010.3 1010.3 2.6
21/11:44am 15.8 10.8 13.5 86 1.3 WSW 32 52 17 28 1010.2 1010.2 1.6
21/11:30am 19.0 15.9 13.4 70 3.2 NNW 22 32 12 17 1009.7 1009.7 0.0
21/11:00am 19.2 16.1 13.4 69 3.3 NNW 22 32 12 17 1009.7 1009.7 0.0
21/10:30am 18.6 15.3 12.8 69 3.3 NW 22 32 12 17 1009.9 1009.9 0.0
21/10:00am 19.3 17.2 13.5 69 3.3 NW 17 28 9 15 1010.0 1010.0 0.0
21/09:30am 18.6 15.7 12.4 67 3.5 WNW 19 33 10 18 1009.9 1009.9 0.0
21/09:00am 18.6 15.6 11.9 65 3.7 WNW 19 30 10 16 1009.7 1009.7 25.2
21/08:30am 17.4 13.4 11.7 69 3.1 WNW 24 41 13 22 1009.5 1009.5 25.2
21/08:00am 17.8 14.8 12.0 69 3.2 WNW 19 28 10 15 1009.1 1009.1 25.2
21/07:30am 16.9 13.7 11.4 70 3.0 WNW 19 32 10 17 1008.8 1008.8 25.2
21/07:00am 16.8 13.3 12.1 74 2.6 W 22 41 12 22 1008.0 1008.0 25.2
21/06:30am 16.7 13.7 15.9 95 0.5 W 26 41 14 22 1007.5 1007.5 25.2
21/06:00am 16.3 14.0 15.7 96 0.4 W 22 35 12 19 1006.9 1006.9 25.2
21/05:30am 16.6 14.0 16.0 96 0.4 W 24 41 13 22 1006.2 1006.2 24.8
21/05:00am 16.0 13.1 15.0 94 0.6 N 24 37 13 20 1005.1 1005.1 9.2
21/04:30am 15.6 13.9 14.6 94 0.6 N 17 28 9 15 1005.5 1005.5 6.6
21/04:00am 15.8 12.0 14.8 94 0.6 N 28 43 15 23 1005.6 1005.6 6.0
21/03:30am 15.6 14.2 14.6 94 0.6 N 15 35 8 19 1006.1 1006.1 3.8
21/03:00am 15.2 12.7 14.1 93 0.6 NNE 20 32 11 17 1006.4 1006.4 3.4
21/02:30am 15.3 13.4 14.2 93 0.6 NNE 17 24 9 13 1007.3 1007.3 2.6
21/02:00am 15.5 14.0 14.2 92 0.7 N 15 26 8 14 1008.0 1008.0 1.8
21/01:30am 15.8 13.6 14.3 91 0.9 N 19 30 10 16 1008.6 1008.6 1.4
21/01:00am 15.6 13.6 13.8 89 1.0 NNE 17 26 9 14 1008.9 1008.9 1.0
21/12:30am 15.6 13.3 13.1 85 1.4 N 17 26 9 14 1009.8 1009.8 0.6
21/12:00am 16.2 13.9 13.1 82 1.7 NNE 17 24 9 13 1009.7 1009.7 0.2
 
Date/Time
WST
Temp
°C
App
Temp
°C
Dew
Point
Rel
Hum
%
Delta-T
°C
Wind Press
QNH
hPa
Press
MSL
hPa
Rain
since 9 am
mm
Dir
 
Spd
km/h
Gust
km/h
Spd
kts
Gust
kts
20/11:30pm 16.3 13.9 12.8 80 1.9 NNE 17 26 9 14 1010.1 1010.1 0.2
20/11:00pm 16.0 14.4 12.7 81 1.8 NNE 13 19 7 10 1010.5 1010.5 0.2
20/10:30pm 15.4 14.5 12.7 84 1.5 NNE 9 15 5 8 1011.1 1011.1 0.2
20/10:00pm 15.3 14.5 12.8 85 1.4 NE 9 13 5 7 1011.5 1011.5 0.2
20/09:30pm 15.6 14.7 12.5 82 1.7 NNE 9 15 5 8 1012.0 1012.0 0.2
20/09:00pm 16.2 15.7 12.6 79 2.0 NNE 7 13 4 7 1012.2 1012.2 0.2
20/08:30pm 17.0 15.3 12.3 74 2.6 N 13 20 7 11 1012.4 1012.4 0.2
20/08:00pm 17.0 14.8 12.1 73 2.7 N 15 22 8 12 1012.5 1012.5 0.2
20/07:30pm 16.6 15.1 12.0 74 2.5 N 11 15 6 8 1012.3 1012.3 0.2
20/07:00pm 16.4 14.5 11.8 74 2.5 N 13 20 7 11 1012.3 1012.3 0.2
20/06:30pm 16.6 14.5 11.1 70 3.0 N 13 19 7 10 1012.3 1012.3 0.2
20/06:00pm 16.6 14.1 10.9 69 3.1 NNW 15 22 8 12 1012.2 1012.2 0.2
20/05:30pm 17.0 14.7 11.7 71 2.9 N 15 20 8 11 1012.5 1012.5 0.2
20/05:00pm 17.1 14.6 13.6 80 2.0 N 19 28 10 15 1012.3 1012.3 0.2
20/04:30pm 17.4 15.3 13.7 79 2.1 N 17 30 9 16 1012.4 1012.4 0.2
20/04:00pm 18.3 15.6 13.6 74 2.7 N 20 28 11 15 1012.2 1012.2 0.2
20/03:30pm 18.4 16.0 12.8 70 3.1 N 17 24 9 13 1012.3 1012.3 0.2
20/03:00pm 18.4 15.8 13.1 71 3.0 NNW 19 24 10 13 1012.5 1012.5 0.2
20/02:30pm 18.4 16.3 13.5 73 2.8 N 17 24 9 13 1012.6 1012.6 0.2
20/02:00pm 17.8 15.5 12.9 73 2.7 NNW 17 26 9 14 1012.8 1012.8 0.2
20/01:30pm 16.7 14.1 13.2 80 2.0 WNW 19 28 10 15 1013.1 1013.1 0.2
20/01:00pm 18.6 16.4 13.2 71 3.0 NNW 17 22 9 12 1013.2 1013.2 0.0
20/12:30pm 18.6 16.9 13.5 72 2.9 NNW 15 22 8 12 1013.5 1013.5 0.0
20/12:00pm 19.5 17.9 13.9 70 3.2 NNW 15 24 8 13 1014.2 1014.1 0.0
20/11:30am 16.9 15.3 13.8 82 1.8 NW 15 22 8 12 1014.4 1014.3 0.0
20/11:00am 18.3 16.1 13.2 72 2.9 N 17 24 9 13 1014.4 1014.3 0.0
20/10:30am 18.1 16.4 13.6 75 2.6 N 15 22 8 12 1014.8 1014.7 0.0
20/10:00am 16.8 16.1 13.3 80 2.0 N 9 15 5 8 1015.0 1014.9 0.0
20/09:30am 16.4 16.2 13.5 83 1.6 NNE 7 11 4 6 1015.0 1014.9 0.0
20/09:00am 16.4 16.7 15.9 97 0.3 NE 9 13 5 7 1015.3 1015.2 0.6
20/08:30am 14.1 13.2 13.6 97 0.3 NE 11 17 6 9 1015.3 - 0.6
20/08:00am 13.7 13.4 13.2 97 0.3 NE 7 11 4 6 1015.1 1015.0 0.4
20/07:30am 12.7 12.1 12.2 97 0.3 NNE 7 11 4 6 1015.0 - 0.4
20/07:00am 11.6 10.8 11.1 97 0.3 ENE 6 7 3 4 1014.6 1014.5 0.4
20/06:30am 10.4 9.6 9.8 96 0.3 NE 4 7 2 4 1014.6 - 0.4
20/06:00am 10.8 9.8 10.2 96 0.3 NE 6 9 3 5 1014.5 1014.4 0.4
20/05:30am 11.1 10.0 10.5 96 0.3 NE 7 11 4 6 1014.3 - 0.4
20/05:00am 10.2 8.8 9.6 96 0.3 ENE 7 9 4 5 1014.4 1014.3 0.4
20/04:30am 10.4 10.0 9.8 96 0.3 NE 2 4 1 2 1014.8 - 0.4
20/04:00am 10.6 9.5 10.0 96 0.3 E 6 7 3 4 1014.8 1014.7 0.4
20/03:30am 11.6 11.2 11.0 96 0.3 ENE 4 7 2 4 1015.1 - 0.4
20/03:00am 11.6 11.2 11.0 96 0.3 ESE 4 6 2 3 1015.3 1015.2 0.4
20/02:30am 11.3 10.2 10.7 96 0.3 N 7 11 4 6 1015.8 - 0.0
20/02:00am 9.4 9.1 8.8 96 0.3 CALM 0 0 0 0 1015.9 1015.8 0.0
20/01:30am 9.8 9.6 9.2 96 0.3 CALM 0 0 0 0 1016.1 - 0.0
20/01:00am 9.7 8.8 9.1 96 0.3 ESE 4 6 2 3 1016.3 1016.2 0.0
20/12:30am 9.6 9.0 9.0 96 0.3 ESE 2 4 1 2 1016.1 - 0.0
20/12:00am 10.1 9.2 9.3 95 0.4 ESE 4 6 2 3 1016.4 1016.3 0.0
 
Date/Time
WST
Temp
°C
App
Temp
°C
Dew
Point
Rel
Hum
%
Delta-T
°C
Wind Press
QNH
hPa
Press
MSL
hPa
Rain
since 9 am
mm
Dir
 
Spd
km/h
Gust
km/h
Spd
kts
Gust
kts
19/11:30pm 10.2 9.7 9.4 95 0.4 SE 2 6 1 3 1016.3 - 0.0
19/11:00pm 10.2 9.3 9.4 95 0.4 SSW 4 6 2 3 1016.3 1016.2 0.0
19/10:30pm 11.3 11.5 10.4 94 0.5 CALM 0 0 0 0 1016.6 - 0.0
19/10:00pm 11.9 11.8 10.8 93 0.6 SSW 2 4 1 2 1016.6 1016.5 0.0
19/09:30pm 12.9 12.6 11.5 91 0.7 SSW 4 4 2 2 1016.9 - 0.0
19/09:00pm 14.2 14.3 12.8 91 0.8 WSW 4 6 2 3 1016.7 1016.6 0.0
19/08:30pm 14.3 14.4 12.7 90 0.9 WSW 4 6 2 3 1016.5 - 0.0
19/08:00pm 15.0 14.8 12.9 87 1.2 WSW 6 7 3 4 1016.4 1016.3 0.0

Other Formats:

Comma delimited format used in spreadsheet applications
http://www.bom.gov.au/fwo/IDW60801/IDW60801.94604.axf

JavaScript Object Notation format (JSON) in row-major order
http://www.bom.gov.au/fwo/IDW60801/IDW60801.94604.json